createdAt,value
2022-10-11T00:01:42.213Z,15.32
2022-10-11T00:04:10.657Z,15.25
2022-10-11T00:06:39.894Z,15.25
2022-10-11T00:09:07.821Z,15.27
2022-10-11T00:11:35.611Z,15.25
2022-10-11T00:14:03.358Z,15.35
2022-10-11T00:16:31.134Z,15.36
2022-10-11T00:18:58.848Z,15.29
2022-10-11T00:21:26.953Z,15.25
2022-10-11T00:23:56.186Z,15.23
2022-10-11T00:26:23.933Z,15.27
2022-10-11T00:28:53.254Z,15.23
2022-10-11T00:31:21.142Z,15.17
2022-10-11T00:33:49.118Z,15.23
2022-10-11T00:36:18.719Z,15.09
2022-10-11T00:38:46.818Z,15.02
2022-10-11T00:41:17.192Z,14.73
2022-10-11T00:43:45.188Z,14.67
2022-10-11T00:46:29.077Z,14.74
2022-10-11T00:49:02.162Z,14.75
2022-10-11T00:51:38.957Z,14.69
2022-10-11T00:54:08.314Z,14.65
2022-10-11T00:56:39.997Z,14.63
2022-10-11T00:59:12.174Z,14.49
2022-10-11T01:01:40.054Z,14.54
2022-10-11T01:04:07.758Z,14.42
2022-10-11T01:06:35.930Z,14.49
2022-10-11T01:09:04.835Z,14.50
2022-10-11T01:11:32.882Z,14.38
2022-10-11T01:14:18.903Z,14.35
2022-10-11T01:16:54.910Z,14.47
2022-10-11T01:19:48.531Z,14.52
2022-10-11T01:22:35.683Z,14.40
2022-10-11T01:25:21.149Z,14.42
2022-10-11T01:28:02.961Z,14.44
2022-10-11T01:30:33.708Z,14.35
2022-10-11T01:33:11.774Z,14.20
2022-10-11T01:35:44.338Z,14.46
2022-10-11T01:38:18.234Z,14.36
2022-10-11T01:40:50.205Z,14.13
2022-10-11T01:43:19.225Z,14.06
2022-10-11T01:45:51.651Z,13.81
2022-10-11T01:48:19.538Z,13.83
2022-10-11T01:50:49.849Z,13.78
2022-10-11T01:53:34.878Z,13.74
2022-10-11T01:56:11.532Z,13.90
2022-10-11T01:58:54.866Z,13.91
2022-10-11T02:01:32.127Z,13.88
2022-10-11T02:04:05.570Z,13.97
2022-10-11T02:06:35.474Z,13.89
2022-10-11T02:09:14.486Z,13.71
2022-10-11T02:11:42.799Z,13.62
2022-10-11T02:14:12.953Z,13.67
2022-10-11T02:16:45.987Z,13.69
2022-10-11T02:19:18.553Z,13.48
2022-10-11T02:21:50.731Z,13.62
2022-10-11T02:24:24.273Z,13.53
2022-10-11T02:26:56.633Z,13.63
2022-10-11T02:29:27.069Z,13.58
2022-10-11T02:31:57.897Z,13.64
2022-10-11T02:34:29.125Z,13.60
2022-10-11T02:37:05.553Z,13.35
2022-10-11T02:39:41.066Z,13.37
2022-10-11T02:42:14.931Z,13.43
2022-10-11T02:44:45.595Z,13.53
2022-10-11T02:47:15.511Z,13.57
2022-10-11T02:49:43.357Z,13.55
2022-10-11T02:52:11.155Z,13.59
2022-10-11T02:54:38.912Z,13.59
2022-10-11T02:57:06.590Z,13.61
2022-10-11T02:59:34.300Z,13.60
2022-10-11T03:02:02.132Z,13.54
2022-10-11T03:04:31.261Z,13.55
2022-10-11T03:06:58.948Z,13.52
2022-10-11T03:09:26.930Z,13.70
2022-10-11T03:11:54.605Z,13.64
2022-10-11T03:14:22.358Z,13.50
2022-10-11T03:16:51.578Z,13.40
2022-10-11T03:19:19.620Z,13.42
2022-10-11T03:21:48.853Z,13.25
2022-10-11T03:24:16.586Z,13.36
2022-10-11T03:26:44.297Z,13.43
2022-10-11T03:29:12.060Z,13.31
2022-10-11T03:31:39.797Z,13.30
2022-10-11T03:34:07.714Z,13.34
2022-10-11T03:36:35.377Z,13.35
2022-10-11T03:39:05.003Z,13.40
2022-10-11T03:41:32.875Z,13.46
2022-10-11T03:44:00.626Z,13.53
2022-10-11T03:46:28.321Z,13.55
2022-10-11T03:48:56.052Z,13.43
2022-10-11T03:51:23.754Z,13.39
2022-10-11T03:53:51.571Z,13.44
2022-10-11T03:56:20.701Z,13.38
2022-10-11T03:58:48.506Z,13.07
2022-10-11T04:01:16.511Z,13.05
2022-10-11T04:03:44.323Z,13.25
2022-10-11T04:06:11.998Z,13.27
2022-10-11T04:08:39.720Z,13.22
2022-10-11T04:11:07.417Z,13.36
2022-10-11T04:13:37.180Z,13.27
2022-10-11T04:16:05.740Z,13.27
2022-10-11T04:18:33.672Z,13.24
2022-10-11T04:21:01.427Z,13.30
2022-10-11T04:23:29.118Z,13.28
2022-10-11T04:25:57.027Z,13.21
2022-10-11T04:28:24.758Z,13.17
2022-10-11T04:30:53.945Z,13.16
2022-10-11T04:33:21.642Z,13.09
2022-10-11T04:35:49.401Z,13.05
2022-10-11T04:38:17.090Z,13.03
2022-10-11T04:40:44.819Z,12.88
2022-10-11T04:43:12.493Z,12.94
2022-10-11T04:45:40.229Z,12.91
2022-10-11T04:48:09.313Z,12.96
2022-10-11T04:50:37.405Z,12.95
2022-10-11T04:53:05.170Z,12.92
2022-10-11T04:55:32.885Z,12.85
2022-10-11T04:58:02.081Z,12.64
2022-10-11T05:00:29.940Z,12.52
2022-10-11T05:02:57.661Z,12.48
2022-10-11T05:05:26.799Z,12.57
2022-10-11T05:07:54.470Z,12.67
2022-10-11T05:10:22.281Z,12.38
2022-10-11T05:12:50.121Z,12.46
2022-10-11T05:15:17.990Z,12.47
2022-10-11T05:17:45.678Z,12.26
2022-10-11T05:20:13.714Z,12.17
2022-10-11T05:22:42.709Z,12.33
2022-10-11T05:25:11.632Z,12.30
2022-10-11T05:27:39.377Z,12.31
2022-10-11T05:30:08.411Z,12.19
2022-10-11T05:32:36.105Z,12.19
2022-10-11T05:35:03.941Z,12.07
2022-10-11T05:37:31.695Z,12.03
2022-10-11T05:40:00.785Z,12.10
2022-10-11T05:42:28.567Z,12.15
2022-10-11T05:44:56.315Z,12.33
2022-10-11T05:47:23.983Z,12.40
2022-10-11T05:49:51.760Z,12.49
2022-10-11T05:52:21.438Z,12.49
2022-10-11T05:54:49.224Z,12.57
2022-10-11T05:57:18.301Z,12.56
2022-10-11T05:59:46.058Z,12.40
2022-10-11T06:02:14.531Z,12.50
2022-10-11T06:04:42.219Z,12.58
2022-10-11T06:07:09.961Z,12.64
2022-10-11T06:09:37.650Z,12.51
2022-10-11T06:12:05.614Z,12.50
2022-10-11T06:14:34.691Z,12.63
2022-10-11T06:17:02.390Z,12.61
2022-10-11T06:19:30.121Z,12.60
2022-10-11T06:21:57.802Z,12.21
2022-10-11T06:24:25.553Z,12.48
2022-10-11T06:26:53.488Z,12.31
2022-10-11T06:29:21.242Z,12.37
2022-10-11T06:31:50.444Z,12.38
2022-10-11T06:34:18.205Z,12.33
2022-10-11T06:36:45.902Z,12.36
2022-10-11T06:39:13.693Z,12.50
2022-10-11T06:41:41.447Z,12.70
2022-10-11T06:44:14.170Z,12.83
2022-10-11T06:46:42.652Z,12.61
2022-10-11T06:49:11.800Z,12.68
2022-10-11T06:51:39.546Z,12.66
2022-10-11T06:54:07.588Z,12.66
2022-10-11T06:56:35.395Z,12.70
2022-10-11T06:59:03.515Z,12.59
2022-10-11T07:01:32.582Z,12.65
2022-10-11T07:04:01.326Z,12.82
2022-10-11T07:06:31.467Z,12.90
2022-10-11T07:09:01.318Z,12.68
2022-10-11T07:11:29.581Z,12.87
2022-10-11T07:13:59.398Z,12.80
2022-10-11T07:16:28.479Z,12.87
2022-10-11T07:19:00.531Z,12.80
2022-10-11T07:21:31.512Z,13.09
2022-10-11T07:23:59.357Z,13.30
2022-10-11T07:26:27.313Z,13.25
2022-10-11T07:28:55.352Z,13.31
2022-10-11T07:31:25.685Z,13.44
2022-10-11T07:33:54.011Z,13.64
2022-10-11T07:36:23.269Z,13.80
2022-10-11T07:38:52.396Z,13.79
2022-10-11T07:41:20.213Z,13.91
2022-10-11T07:43:49.796Z,13.85
2022-10-11T07:46:18.287Z,13.94
2022-10-11T07:48:45.996Z,14.26
2022-10-11T07:51:16.620Z,14.42
2022-10-11T07:53:46.133Z,14.42
2022-10-11T07:56:16.851Z,14.52
2022-10-11T07:58:45.045Z,14.64
2022-10-11T08:01:14.520Z,14.69
2022-10-11T08:03:42.373Z,14.75
2022-10-11T08:06:12.430Z,14.76
2022-10-11T08:08:40.178Z,14.87
2022-10-11T08:11:08.033Z,14.86
2022-10-11T08:13:37.577Z,14.63
2022-10-11T08:16:12.082Z,14.87
2022-10-11T08:18:39.785Z,14.77
2022-10-11T08:21:09.094Z,15.03
2022-10-11T08:23:36.871Z,15.17
2022-10-11T08:26:05.914Z,14.98
2022-10-11T08:28:34.124Z,15.10
2022-10-11T08:31:03.517Z,15.05
2022-10-11T08:33:32.038Z,15.07
2022-10-11T08:35:59.798Z,15.17
2022-10-11T08:38:27.605Z,15.27
2022-10-11T08:40:57.459Z,15.11
2022-10-11T08:43:33.985Z,15.18
2022-10-11T08:46:05.680Z,15.34
2022-10-11T08:48:36.556Z,15.29
2022-10-11T08:51:10.498Z,15.60
2022-10-11T08:53:45.806Z,15.48
2022-10-11T08:56:15.498Z,15.52
2022-10-11T08:58:48.286Z,15.41
2022-10-11T09:01:21.577Z,15.20
2022-10-11T09:03:50.733Z,15.38
2022-10-11T09:06:27.547Z,15.64
2022-10-11T09:09:20.987Z,15.76
2022-10-11T09:12:04.212Z,15.59
2022-10-11T09:14:59.522Z,15.84
2022-10-11T09:17:47.457Z,15.76
2022-10-11T09:20:34.185Z,16.09
2022-10-11T09:23:06.299Z,16.12
2022-10-11T09:25:38.226Z,16.41
2022-10-11T09:28:18.749Z,16.49
2022-10-11T09:30:51.109Z,16.31
2022-10-11T09:33:25.395Z,16.41
2022-10-11T09:35:58.675Z,16.65
2022-10-11T09:38:36.452Z,16.73
2022-10-11T09:41:17.259Z,17.02
2022-10-11T09:43:50.043Z,16.93
2022-10-11T09:46:24.119Z,16.92
2022-10-11T09:48:56.884Z,17.06
2022-10-11T09:51:28.879Z,16.80
2022-10-11T09:53:59.684Z,17.08
2022-10-11T09:56:30.532Z,17.15
2022-10-11T09:59:10.241Z,17.10
2022-10-11T10:01:38.693Z,17.04
2022-10-11T10:04:12.273Z,17.12
2022-10-11T10:06:43.600Z,17.24
2022-10-11T10:09:26.378Z,17.31
2022-10-11T10:11:56.635Z,17.24
2022-10-11T10:14:36.763Z,17.59
2022-10-11T10:17:10.293Z,17.53
2022-10-11T10:19:48.506Z,17.58
2022-10-11T10:22:20.408Z,17.74
2022-10-11T10:24:49.455Z,17.76
2022-10-11T10:27:22.249Z,17.77
2022-10-11T10:30:14.752Z,17.88
2022-10-11T10:32:50.822Z,18.01
2022-10-11T10:35:30.204Z,17.65
2022-10-11T10:38:07.330Z,17.92
2022-10-11T10:40:41.154Z,18.26
2022-10-11T10:43:17.226Z,18.64
2022-10-11T10:46:20.393Z,18.63
2022-10-11T10:51:53.732Z,18.28
2022-10-11T10:54:36.385Z,17.94
2022-10-11T10:57:11.090Z,18.29
2022-10-11T10:59:55.253Z,18.23
2022-10-11T11:02:40.073Z,18.11
2022-10-11T11:05:21.261Z,18.52
2022-10-11T11:07:56.041Z,18.63
2022-10-11T11:10:30.544Z,18.74
2022-10-11T11:13:09.286Z,18.32
2022-10-11T11:15:43.193Z,18.45
2022-10-11T11:18:27.109Z,18.69
2022-10-11T11:21:15.056Z,18.58
2022-10-11T11:23:54.387Z,18.91
2022-10-11T11:26:29.342Z,19.04
2022-10-11T11:29:07.656Z,19.17
2022-10-11T11:31:58.319Z,19.08
2022-10-11T11:34:30.189Z,19.08
2022-10-11T11:37:01.496Z,19.10
2022-10-11T11:39:34.031Z,19.01
2022-10-11T11:42:06.598Z,19.43
2022-10-11T11:44:37.159Z,19.17
2022-10-11T11:47:10.939Z,19.16
2022-10-11T11:52:27.972Z,19.01
2022-10-11T11:55:06.474Z,19.27
2022-10-11T11:57:50.062Z,19.36
2022-10-11T12:00:21.186Z,19.42
2022-10-11T12:02:54.463Z,19.25
2022-10-11T12:05:23.884Z,19.48
2022-10-11T12:07:56.747Z,19.89
2022-10-11T12:10:33.082Z,19.96
2022-10-11T12:13:17.073Z,19.88
2022-10-11T12:15:59.086Z,20.09
2022-10-11T12:18:27.554Z,20.14
2022-10-11T12:21:05.620Z,20.54
2022-10-11T12:23:47.058Z,20.55
2022-10-11T12:26:34.094Z,20.21
2022-10-11T12:29:28.379Z,20.30
2022-10-11T12:32:31.494Z,20.69
2022-10-11T12:35:32.351Z,20.76
2022-10-11T12:38:14.149Z,20.58
2022-10-11T12:40:43.820Z,20.32
2022-10-11T12:43:57.911Z,20.63
2022-10-11T12:46:41.859Z,20.90
2022-10-11T12:49:29.170Z,21.08
2022-10-11T12:52:01.822Z,21.48
2022-10-11T12:54:54.736Z,21.19
2022-10-11T12:57:46.991Z,20.97
2022-10-11T13:00:27.834Z,21.05
2022-10-11T13:02:56.756Z,21.55
2022-10-11T13:05:27.476Z,21.02
2022-10-11T13:07:58.492Z,21.24
2022-10-11T13:10:31.733Z,21.15
2022-10-11T13:13:04.271Z,21.32
2022-10-11T13:15:33.714Z,21.37
2022-10-11T13:18:01.925Z,21.37
2022-10-11T13:20:32.708Z,21.43
2022-10-11T13:23:00.566Z,21.34
2022-10-11T13:25:30.874Z,21.07
2022-10-11T13:27:59.604Z,21.61
2022-10-11T13:30:30.543Z,21.93
2022-10-11T13:33:00.482Z,21.96
2022-10-11T13:35:32.730Z,21.67
2022-10-11T13:38:01.499Z,21.80
2022-10-11T13:40:31.052Z,21.56
2022-10-11T13:43:01.185Z,21.56
2022-10-11T13:45:31.549Z,21.57
2022-10-11T13:48:00.630Z,21.92
2022-10-11T13:50:32.276Z,21.94
2022-10-11T13:53:23.973Z,21.94
2022-10-11T13:55:54.204Z,21.91
2022-10-11T13:58:29.093Z,22.02
2022-10-11T14:00:59.541Z,22.17
2022-10-11T14:03:38.422Z,21.60
2022-10-11T14:06:06.968Z,21.43
2022-10-11T14:08:39.363Z,21.63
2022-10-11T14:11:08.494Z,21.73
2022-10-11T14:13:38.582Z,21.97
2022-10-11T14:16:09.579Z,22.12
2022-10-11T14:18:48.058Z,21.80
2022-10-11T14:21:25.653Z,21.53
2022-10-11T14:23:55.213Z,21.52
2022-10-11T14:26:24.020Z,21.88
2022-10-11T14:28:55.228Z,21.94
2022-10-11T14:31:23.154Z,22.06
2022-10-11T14:33:52.557Z,21.67
2022-10-11T14:36:21.445Z,21.88
2022-10-11T14:38:49.211Z,22.02
2022-10-11T14:41:17.101Z,22.00
2022-10-11T14:43:45.041Z,21.84
2022-10-11T14:46:22.009Z,21.71
2022-10-11T14:48:55.379Z,21.84
2022-10-11T14:51:30.241Z,21.63
2022-10-11T14:53:58.863Z,21.88
2022-10-11T14:56:26.781Z,21.84
2022-10-11T14:58:54.507Z,21.51
2022-10-11T15:01:22.378Z,21.39
2022-10-11T15:03:50.173Z,21.24
2022-10-11T15:06:21.467Z,21.38
2022-10-11T15:08:50.533Z,21.31
2022-10-11T15:11:22.520Z,21.10
2022-10-11T15:13:50.817Z,21.07
2022-10-11T15:16:20.604Z,21.06
2022-10-11T15:18:51.074Z,21.03
2022-10-11T15:21:20.710Z,20.80
2022-10-11T15:23:50.095Z,20.90
2022-10-11T15:26:20.254Z,21.05
2022-10-11T15:28:49.466Z,21.15
2022-10-11T15:31:18.106Z,21.05
2022-10-11T15:33:45.885Z,21.05
2022-10-11T15:36:15.393Z,21.00
2022-10-11T15:38:44.781Z,20.78
2022-10-11T15:41:15.634Z,21.03
2022-10-11T15:43:44.983Z,20.96
2022-10-11T15:46:15.837Z,21.06
2022-10-11T15:48:43.656Z,20.73
2022-10-11T15:51:11.491Z,20.82
2022-10-11T15:53:39.449Z,20.82
2022-10-11T15:56:10.320Z,20.88
2022-10-11T15:58:40.958Z,20.91
2022-10-11T16:01:12.661Z,20.50
2022-10-11T16:03:40.995Z,20.68
2022-10-11T16:06:09.565Z,20.66
2022-10-11T16:08:37.669Z,20.67
2022-10-11T16:11:06.295Z,20.56
2022-10-11T16:13:34.323Z,20.53
2022-10-11T16:16:04.579Z,20.51
2022-10-11T16:18:35.607Z,20.36
2022-10-11T16:21:07.933Z,20.07
2022-10-11T16:23:36.376Z,20.17
2022-10-11T16:26:06.288Z,20.24
2022-10-11T16:28:34.848Z,20.34
2022-10-11T16:31:09.018Z,20.36
2022-10-11T16:33:45.224Z,20.30
2022-10-11T16:36:31.730Z,20.30
2022-10-11T16:38:59.826Z,20.15
2022-10-11T16:41:27.849Z,20.08
2022-10-11T16:43:56.926Z,19.95
2022-10-11T16:46:26.061Z,20.03
2022-10-11T16:48:56.294Z,20.06
2022-10-11T16:51:25.283Z,19.92
2022-10-11T16:53:53.339Z,19.85
2022-10-11T16:56:22.584Z,19.90
2022-10-11T16:58:51.221Z,19.76
2022-10-11T17:01:21.697Z,19.73
2022-10-11T17:03:52.667Z,19.67
2022-10-11T17:06:20.955Z,19.52
2022-10-11T17:08:49.687Z,19.41
2022-10-11T17:11:17.783Z,19.37
2022-10-11T17:13:45.841Z,19.29
2022-10-11T17:16:13.558Z,19.20
2022-10-11T17:18:41.273Z,19.08
2022-10-11T17:21:13.506Z,18.99
2022-10-11T17:23:41.693Z,18.90
2022-10-11T17:26:12.642Z,18.81
2022-10-11T17:28:40.640Z,18.80
2022-10-11T17:31:09.309Z,18.76
2022-10-11T17:33:37.534Z,18.64
2022-10-11T17:36:17.192Z,18.56
2022-10-11T17:38:44.961Z,18.52
2022-10-11T17:41:12.693Z,18.47
2022-10-11T17:43:40.433Z,18.38
2022-10-11T17:46:09.404Z,18.31
2022-10-11T17:48:39.254Z,18.28
2022-10-11T17:51:09.314Z,18.19
2022-10-11T17:53:38.742Z,18.04
2022-10-11T17:56:08.309Z,18.02
2022-10-11T17:58:36.434Z,18.04
2022-10-11T18:01:05.835Z,17.94
2022-10-11T18:03:34.133Z,17.88
2022-10-11T18:06:04.449Z,17.76
2022-10-11T18:08:35.306Z,17.72
2022-10-11T18:11:11.514Z,17.72
2022-10-11T18:13:42.350Z,17.54
2022-10-11T18:16:11.143Z,17.65
2022-10-11T18:18:39.606Z,17.52
2022-10-11T18:21:07.462Z,17.45
2022-10-11T18:23:36.282Z,17.43
2022-10-11T18:26:11.465Z,17.45
2022-10-11T18:28:40.510Z,17.40
2022-10-11T18:31:12.987Z,17.34
2022-10-11T18:33:41.796Z,17.37
2022-10-11T18:36:13.355Z,17.34
2022-10-11T18:38:43.863Z,17.25
2022-10-11T18:41:15.034Z,17.22
2022-10-11T18:43:42.962Z,17.13
2022-10-11T18:46:12.305Z,17.10
2022-10-11T18:48:41.865Z,17.06
2022-10-11T18:51:12.164Z,17.12
2022-10-11T18:53:40.001Z,17.08
2022-10-11T18:56:10.480Z,17.08
2022-10-11T18:58:40.761Z,17.02
2022-10-11T19:01:10.320Z,17.03
2022-10-11T19:03:38.738Z,16.93
2022-10-11T19:06:09.498Z,16.99
2022-10-11T19:08:37.349Z,16.95
2022-10-11T19:11:08.699Z,16.96
2022-10-11T19:13:37.095Z,16.93
2022-10-11T19:16:09.457Z,16.82
2022-10-11T19:18:43.174Z,16.88
2022-10-11T19:21:13.611Z,16.86
2022-10-11T19:23:43.126Z,16.71
2022-10-11T19:26:14.814Z,16.62
2022-10-11T19:28:43.205Z,16.57
2022-10-11T19:31:16.237Z,16.53
2022-10-11T19:33:44.346Z,16.48
2022-10-11T19:36:14.578Z,16.45
2022-10-11T19:38:46.016Z,16.41
2022-10-11T19:41:14.976Z,16.43
2022-10-11T19:43:43.250Z,16.55
2022-10-11T19:46:20.187Z,16.50
2022-10-11T19:48:52.169Z,16.39
2022-10-11T19:51:21.894Z,16.32
2022-10-11T19:53:50.854Z,16.30
2022-10-11T19:56:20.116Z,16.16
2022-10-11T19:58:47.865Z,16.07
2022-10-11T20:01:18.822Z,15.62
2022-10-11T20:03:49.155Z,15.57
2022-10-11T20:06:18.055Z,15.46
2022-10-11T20:08:48.217Z,15.32
2022-10-11T20:11:21.762Z,15.28
2022-10-11T20:13:50.234Z,15.34
2022-10-11T20:16:20.726Z,15.07
2022-10-11T20:18:48.806Z,14.84
2022-10-11T20:21:19.272Z,14.56
2022-10-11T20:23:48.873Z,14.57
2022-10-11T20:26:17.993Z,14.54
2022-10-11T20:28:46.099Z,14.60
2022-10-11T20:31:15.716Z,14.70
2022-10-11T20:33:45.657Z,14.72
2022-10-11T20:36:15.830Z,14.57
2022-10-11T20:38:45.331Z,14.50
2022-10-11T20:41:15.223Z,14.48
2022-10-11T20:43:43.296Z,14.52
2022-10-11T20:46:13.689Z,14.47
2022-10-11T20:48:42.356Z,14.32
2022-10-11T20:51:11.717Z,14.32
2022-10-11T20:53:39.890Z,14.35
2022-10-11T20:56:10.767Z,14.31
2022-10-11T20:58:38.849Z,14.35
2022-10-11T21:01:10.280Z,14.36
2022-10-11T21:03:37.998Z,14.35
2022-10-11T21:06:06.075Z,14.20
2022-10-11T21:08:36.361Z,14.02
2022-10-11T21:11:05.209Z,13.99
2022-10-11T21:13:32.917Z,13.93
2022-10-11T21:16:04.597Z,13.98
2022-10-11T21:18:32.311Z,14.03
2022-10-11T21:21:05.986Z,14.15
2022-10-11T21:23:35.365Z,14.13
2022-10-11T21:26:04.185Z,13.94
2022-10-11T21:28:32.926Z,13.95
2022-10-11T21:31:04.593Z,13.97
2022-10-11T21:33:32.302Z,14.03
2022-10-11T21:36:00.119Z,13.91
2022-10-11T21:38:27.839Z,13.73
2022-10-11T21:40:56.917Z,13.40
2022-10-11T21:43:24.778Z,13.05
2022-10-11T21:45:52.496Z,13.19
2022-10-11T21:48:20.215Z,13.35
2022-10-11T21:50:53.737Z,13.41
2022-10-11T21:53:21.538Z,13.40
2022-10-11T21:55:49.321Z,13.40
2022-10-11T21:58:18.382Z,13.38
2022-10-11T22:00:47.948Z,13.39
2022-10-11T22:03:15.685Z,13.34
2022-10-11T22:05:45.306Z,13.36
2022-10-11T22:08:13.377Z,13.36
2022-10-11T22:10:43.449Z,13.39
2022-10-11T22:13:11.378Z,13.44
2022-10-11T22:15:40.752Z,13.38
2022-10-11T22:18:08.456Z,13.18
2022-10-11T22:20:36.386Z,13.07
2022-10-11T22:23:04.089Z,12.90
2022-10-11T22:25:31.740Z,12.91
2022-10-11T22:27:59.389Z,12.71
2022-10-11T22:30:27.198Z,12.84
2022-10-11T22:32:56.543Z,13.03
2022-10-11T22:35:24.525Z,13.12
2022-10-11T22:37:53.089Z,13.09
2022-10-11T22:40:21.518Z,12.95
2022-10-11T22:42:49.173Z,12.95
2022-10-11T22:45:17.073Z,12.93
2022-10-11T22:47:44.738Z,12.94
2022-10-11T22:50:13.862Z,12.84
2022-10-11T22:52:41.557Z,12.92
2022-10-11T22:55:10.076Z,12.96
2022-10-11T22:57:38.097Z,13.13
2022-10-11T23:00:07.442Z,13.01
2022-10-11T23:02:35.143Z,12.78
2022-10-11T23:05:02.886Z,12.65
2022-10-11T23:07:31.950Z,12.51
2022-10-11T23:09:59.609Z,12.64
2022-10-11T23:12:27.325Z,12.75
2022-10-11T23:14:55.046Z,12.78
2022-10-11T23:17:22.742Z,12.81
2022-10-11T23:19:50.426Z,12.70
2022-10-11T23:22:18.093Z,12.60
2022-10-11T23:24:47.151Z,12.54
2022-10-11T23:27:14.963Z,12.53
2022-10-11T23:29:42.670Z,12.48
2022-10-11T23:32:11.181Z,12.41
2022-10-11T23:34:39.167Z,12.51
2022-10-11T23:37:06.982Z,12.38
2022-10-11T23:39:34.993Z,12.21
2022-10-11T23:42:04.113Z,12.09
2022-10-11T23:44:31.826Z,12.13
2022-10-11T23:46:59.485Z,12.22
2022-10-11T23:49:27.197Z,12.19
2022-10-11T23:51:54.924Z,12.15
2022-10-11T23:54:22.582Z,12.22
2022-10-11T23:56:50.302Z,12.28
2022-10-11T23:59:19.298Z,12.37
